KDRT/DRT METAR and TAF weather

Enter ICAO airport designator
Station Type Date Time Source
KDRT METAR 2020/04/09 20:53 UTC NOAA

KDRT 092053Z AUTO 30007KT 10SM FEW035 SCT070 SCT080 32/12 A2981 RMK AO2 SLP077 T03170122 56025


Station Type Date Time Source
KDRT Decoded METAR 2020/04/09 20:53 UTC NOAA

DEL RIO INTERNATIONAL AIRPORT, TX, United States (KDRT) 29-22N 100-55W 313M
Apr 09, 2020 - 04:53 PM EDT / 2020.04.09 2053 UTC
Wind: from the WNW (300 degrees) at 8 MPH (7 KT):0
Visibility: 10 mile(s):0
Sky conditions: partly cloudy
Temperature: 89.1 F (31.7 C)
Dew Point: 54.0 F (12.2 C)
Relative Humidity: 30%
Pressure (altimeter): 29.81 in. Hg (1009 hPa)
Pressure tendency: 0.07 inches (2.5 hPa) lower than three hours ago
ob: KDRT 092053Z AUTO 30007KT 10SM FEW035 SCT070 SCT080 32/12 A2981 RMK AO2 SLP077 T03170122 56025
cycle: 21

Station Type Date Time Source
KDRT TAF 2020/04/09 18:59 UTC NOAA

TAF
AMD KDRT 091759Z 0918/1018 32010G20KT P6SM BKN250
FM100000 33013KT P6SM VCSH BKN100
FM100700 04006KT P6SM BKN100
FM101500 09010KT P6SM OVC015

Example: see airport list